createdAt,value
2023-03-21T00:00:33.304Z,9.62
2023-03-21T00:10:41.244Z,9.56
2023-03-21T00:20:52.040Z,9.61
2023-03-21T00:30:53.369Z,9.54
2023-03-21T00:40:55.083Z,9.36
2023-03-21T00:50:57.102Z,9.23
2023-03-21T01:00:58.407Z,9.00
2023-03-21T01:10:59.650Z,8.76
2023-03-21T01:21:01.234Z,8.41
2023-03-21T01:31:02.934Z,8.16
2023-03-21T01:41:08.577Z,7.96
2023-03-21T01:51:16.137Z,7.75
2023-03-21T02:01:18.631Z,7.63
2023-03-21T02:11:19.981Z,7.40
2023-03-21T02:21:21.208Z,7.16
2023-03-21T02:31:22.444Z,6.91
2023-03-21T02:41:25.435Z,6.65
2023-03-21T02:51:28.609Z,6.54
2023-03-21T03:01:29.832Z,6.38
2023-03-21T03:11:31.111Z,6.39
2023-03-21T03:21:32.398Z,6.42
2023-03-21T03:31:33.712Z,6.54
2023-03-21T03:42:02.971Z,6.63
2023-03-21T03:51:58.025Z,6.73
2023-03-21T04:01:59.281Z,6.97
2023-03-21T04:12:00.761Z,6.97
2023-03-21T04:22:01.953Z,7.05
2023-03-21T04:32:03.505Z,7.10
2023-03-21T04:42:04.816Z,7.04
2023-03-21T04:52:06.124Z,6.91
2023-03-21T05:02:07.338Z,6.72
2023-03-21T05:12:08.565Z,6.69
2023-03-21T05:22:09.792Z,6.75
2023-03-21T05:32:10.984Z,6.74
2023-03-21T05:42:12.219Z,6.66
2023-03-21T05:52:13.711Z,6.55
2023-03-21T06:02:15.049Z,6.60
2023-03-21T06:12:16.310Z,6.75
2023-03-21T06:22:17.518Z,7.03
2023-03-21T06:32:18.730Z,7.16
2023-03-21T06:42:19.940Z,7.33
2023-03-21T06:52:21.390Z,7.32
2023-03-21T07:02:22.643Z,7.64
2023-03-21T07:12:23.928Z,8.10
2023-03-21T07:22:25.198Z,8.57
2023-03-21T07:32:29.818Z,8.93
2023-03-21T07:52:33.513Z,9.88
2023-03-21T08:02:34.774Z,10.22
2023-03-21T08:12:36.046Z,10.49
2023-03-21T08:22:37.302Z,10.87
2023-03-21T08:32:38.717Z,10.80
2023-03-21T08:42:40.153Z,11.30
2023-03-21T08:52:41.585Z,11.62
2023-03-21T09:02:42.874Z,11.36
2023-03-21T09:12:44.091Z,11.95
2023-03-21T09:22:45.601Z,12.13
2023-03-21T09:32:48.545Z,12.23
2023-03-21T09:42:49.952Z,12.39
2023-03-21T09:52:51.856Z,12.97
2023-03-21T10:02:56.253Z,13.19
2023-03-21T10:12:58.528Z,13.59
2023-03-21T10:22:59.818Z,13.75
2023-03-21T10:33:02.408Z,13.69
2023-03-21T10:43:03.682Z,13.70
2023-03-21T10:53:05.067Z,14.16
2023-03-21T11:03:06.840Z,14.48
2023-03-21T11:13:08.140Z,14.49
2023-03-21T11:23:09.366Z,14.29
2023-03-21T11:33:10.941Z,14.57
2023-03-21T11:43:12.129Z,14.90
2023-03-21T11:53:14.568Z,15.06
2023-03-21T12:03:15.815Z,15.21
2023-03-21T12:13:17.073Z,15.68
2023-03-21T12:23:18.395Z,15.68
2023-03-21T12:33:19.606Z,15.68
2023-03-21T12:43:20.813Z,16.02
2023-03-21T12:53:22.040Z,16.22
2023-03-21T13:03:33.746Z,16.50
2023-03-21T13:13:40.736Z,16.59
2023-03-21T13:23:41.978Z,16.14
2023-03-21T13:33:44.678Z,16.43
2023-03-21T13:43:46.008Z,16.91
2023-03-21T13:53:47.391Z,16.34
2023-03-21T14:03:48.724Z,16.22
2023-03-21T14:13:51.488Z,15.96
2023-03-21T14:23:53.155Z,16.11
2023-03-21T14:33:54.512Z,16.12
2023-03-21T14:43:55.750Z,15.97
2023-03-21T14:53:57.163Z,15.55
2023-03-21T15:04:00.474Z,15.55
2023-03-21T15:14:01.913Z,15.50
2023-03-21T15:24:03.312Z,15.19
2023-03-21T15:34:04.523Z,15.07
2023-03-21T15:44:05.766Z,15.00
2023-03-21T15:54:07.215Z,14.71
2023-03-21T16:04:08.455Z,14.60
2023-03-21T16:14:10.296Z,14.37
2023-03-21T16:24:12.506Z,14.20
2023-03-21T16:34:13.747Z,14.06
2023-03-21T16:44:14.973Z,13.92
2023-03-21T16:54:16.414Z,13.80
2023-03-21T17:04:17.720Z,13.64
2023-03-21T17:14:21.124Z,13.53
2023-03-21T17:24:23.789Z,13.40
2023-03-21T17:34:25.006Z,13.26
2023-03-21T17:44:26.324Z,13.09
2023-03-21T17:54:27.619Z,12.92
2023-03-21T18:04:28.944Z,12.77
2023-03-21T18:14:30.766Z,12.69
2023-03-21T18:24:32.013Z,12.50
2023-03-21T18:34:33.290Z,12.44
2023-03-21T18:44:38.532Z,12.40
2023-03-21T18:54:40.649Z,12.13
2023-03-21T19:04:42.491Z,11.89
2023-03-21T19:14:43.816Z,11.73
2023-03-21T19:24:45.082Z,11.71
2023-03-21T19:34:46.963Z,11.62
2023-03-21T19:44:48.179Z,11.40
2023-03-21T19:54:49.740Z,11.26
2023-03-21T20:04:51.550Z,11.08
2023-03-21T20:15:01.017Z,10.73
2023-03-21T20:25:11.296Z,10.51
2023-03-21T20:35:20.801Z,10.23
2023-03-21T20:45:28.711Z,9.86
2023-03-21T20:55:37.311Z,9.71
2023-03-21T21:05:38.636Z,9.80
2023-03-21T21:15:39.890Z,9.71
2023-03-21T21:25:41.173Z,9.54
2023-03-21T21:35:47.484Z,9.35
2023-03-21T21:45:48.795Z,9.20
2023-03-21T21:55:51.080Z,9.15
2023-03-21T22:05:52.484Z,8.89
2023-03-21T22:15:53.773Z,8.72
2023-03-21T22:25:55.366Z,8.67
2023-03-21T22:35:56.591Z,8.97
2023-03-21T22:45:57.896Z,9.03
2023-03-21T22:55:59.331Z,8.99
2023-03-21T23:06:01.334Z,8.92
2023-03-21T23:16:02.659Z,8.82
2023-03-21T23:26:03.928Z,8.74
2023-03-21T23:36:05.200Z,8.73
2023-03-21T23:46:06.470Z,8.75
2023-03-21T23:56:07.763Z,8.80
